createdAt,value
2017-08-19T00:00:35.901Z,80.94
2017-08-19T00:01:16.356Z,81.52
2017-08-19T00:01:56.727Z,81.37
2017-08-19T00:02:37.179Z,81.18
2017-08-19T00:03:17.587Z,80.7
2017-08-19T00:03:57.945Z,80.6
2017-08-19T00:04:38.387Z,80.79
2017-08-19T00:05:18.848Z,80.51
2017-08-19T00:05:59.249Z,80.89
2017-08-19T00:06:39.712Z,80.03
2017-08-19T00:07:20.073Z,80.79
2017-08-19T00:08:00.509Z,80.99
2017-08-19T00:08:40.940Z,79.55
2017-08-19T00:09:21.329Z,80.12
2017-08-19T00:11:40.942Z,80.03
2017-08-19T00:12:21.270Z,79.55
2017-08-19T00:13:01.664Z,79.74
2017-08-19T00:13:42.119Z,79.74
2017-08-19T00:14:22.576Z,79.74
2017-08-19T00:15:03.004Z,80.03
2017-08-19T00:15:43.416Z,79.74
2017-08-19T00:16:23.882Z,79.74
2017-08-19T00:17:04.269Z,79.74
2017-08-19T00:17:44.699Z,80.99
2017-08-19T00:18:25.193Z,80.56
2017-08-19T00:19:06.157Z,80.66
2017-08-19T00:19:46.481Z,80.27
2017-08-19T00:20:26.904Z,80.6
2017-08-19T00:21:07.373Z,80.89
2017-08-19T00:21:47.889Z,80.89
2017-08-19T00:22:28.362Z,80.7
2017-08-19T00:23:08.680Z,79.74
2017-08-19T00:23:49.076Z,80.12
2017-08-19T00:24:29.446Z,80.03
2017-08-19T00:25:09.920Z,79.8
2017-08-19T00:25:50.296Z,80.51
2017-08-19T00:26:30.756Z,79.74
2017-08-19T00:27:11.111Z,79.55
2017-08-19T00:27:52.060Z,79.7
2017-08-19T00:28:32.192Z,79.7
2017-08-19T00:31:54.638Z,79.93
2017-08-19T00:32:34.898Z,80.22
2017-08-19T00:33:15.320Z,80.12
2017-08-19T00:33:55.720Z,79.74
2017-08-19T00:36:08.380Z,79.45
2017-08-19T00:36:48.674Z,79.55
2017-08-19T00:37:29.065Z,79.64
2017-08-19T00:38:09.792Z,80.22
2017-08-19T00:38:50.200Z,79.55
2017-08-19T00:39:30.621Z,79.36
2017-08-19T00:40:11.542Z,79.36
2017-08-19T00:42:09.093Z,79.26
2017-08-19T00:42:49.412Z,78.88
2017-08-19T00:43:29.813Z,79.32
2017-08-19T00:44:10.189Z,78.84
2017-08-19T00:44:50.588Z,79.07
2017-08-19T00:45:31.012Z,79.51
2017-08-19T00:46:11.392Z,79.26
2017-08-19T00:46:51.796Z,79.99
2017-08-19T00:47:32.221Z,79.6
2017-08-19T00:48:12.597Z,79.74
2017-08-19T00:48:53.016Z,78.78
2017-08-19T00:49:33.444Z,79.13
2017-08-19T00:50:13.772Z,78.93
2017-08-19T00:50:54.342Z,79.03
2017-08-19T00:51:34.725Z,78.45
2017-08-19T00:52:15.158Z,79.99
2017-08-19T00:52:55.738Z,80.66
2017-08-19T00:53:36.012Z,79.8
2017-08-19T00:54:16.447Z,79.99
2017-08-19T00:54:56.890Z,79.22
2017-08-19T00:56:49.284Z,79.32
2017-08-19T00:57:29.729Z,80.08
2017-08-19T00:58:10.068Z,79.51
2017-08-19T00:58:50.486Z,79.7
2017-08-19T00:59:30.881Z,79.41
2017-08-19T01:00:11.304Z,79.7
2017-08-19T01:00:51.726Z,79.7
2017-08-19T01:01:32.142Z,78.93
2017-08-19T01:02:12.557Z,79.22
2017-08-19T01:02:53.011Z,79.32
2017-08-19T01:03:33.406Z,79.7
2017-08-19T01:05:46.130Z,78.93
2017-08-19T01:06:26.484Z,79.03
2017-08-19T01:07:06.891Z,80.18
2017-08-19T01:07:47.324Z,78.55
2017-08-19T01:08:27.796Z,79.7
2017-08-19T01:09:08.176Z,79.8
2017-08-19T01:09:48.664Z,79.7
2017-08-19T01:10:29.014Z,79.41
2017-08-19T01:11:09.438Z,79.6
2017-08-19T01:11:49.851Z,79.99
2017-08-19T01:12:30.241Z,80.66
2017-08-19T01:13:10.645Z,79.8
2017-08-19T01:13:51.070Z,79.51
2017-08-19T01:14:31.446Z,79.6
2017-08-19T01:16:18.804Z,79.7
2017-08-19T01:16:59.255Z,79.6
2017-08-19T01:17:39.689Z,79.6
2017-08-19T01:18:20.117Z,79.89
2017-08-19T01:19:00.547Z,79.51
2017-08-19T01:19:40.936Z,79.7
2017-08-19T01:20:21.670Z,79.8
2017-08-19T01:21:02.074Z,79.89
2017-08-19T01:21:42.534Z,80.18
2017-08-19T01:22:22.948Z,79.51
2017-08-19T01:23:03.347Z,79.51
2017-08-19T01:23:43.702Z,80.47
2017-08-19T01:24:24.245Z,80.08
2017-08-19T01:25:04.548Z,79.89
2017-08-19T01:25:44.941Z,80.76
2017-08-19T01:26:25.366Z,79.7
2017-08-19T01:27:05.815Z,80.08
2017-08-19T01:27:46.253Z,80.08
2017-08-19T01:28:26.610Z,80.81
2017-08-19T01:29:07.063Z,80.56
2017-08-19T01:29:47.469Z,79.89
2017-08-19T01:30:28.025Z,81
2017-08-19T01:31:08.425Z,79.7
2017-08-19T01:31:48.793Z,79.7
2017-08-19T01:32:29.263Z,80.18
2017-08-19T01:33:09.731Z,79.8
2017-08-19T01:33:50.147Z,79.6
2017-08-19T01:34:30.545Z,79.41
2017-08-19T01:35:10.986Z,79.47
2017-08-19T01:35:51.371Z,79.95
2017-08-19T01:36:31.789Z,79.8
2017-08-19T01:37:12.194Z,79.89
2017-08-19T01:37:52.620Z,80.08
2017-08-19T01:38:33.031Z,79.03
2017-08-19T01:39:13.426Z,78.84
2017-08-19T01:39:53.820Z,78.93
2017-08-19T01:40:34.204Z,79.85
2017-08-19T01:41:14.803Z,79.85
2017-08-19T01:41:55.186Z,79.75
2017-08-19T01:42:35.802Z,80.18
2017-08-19T01:43:16.558Z,79.66
2017-08-19T01:43:56.765Z,79.47
2017-08-19T01:44:37.305Z,80.52
2017-08-19T01:45:19.353Z,80.62
2017-08-19T01:45:59.789Z,79.47
2017-08-19T01:46:40.241Z,79.47
2017-08-19T01:48:58.821Z,79.47
2017-08-19T01:49:38.500Z,79.66
2017-08-19T01:50:18.977Z,79.47
2017-08-19T01:50:59.360Z,79.47
2017-08-19T01:52:51.875Z,80.43
2017-08-19T01:53:32.253Z,80.04
2017-08-19T01:54:12.658Z,79.66
2017-08-19T01:54:53.048Z,79.95
2017-08-19T01:55:33.499Z,80.14
2017-08-19T01:56:13.988Z,79.47
2017-08-19T01:56:54.310Z,80.04
2017-08-19T01:57:34.760Z,80.04
2017-08-19T01:58:15.158Z,79.47
2017-08-19T01:58:55.531Z,78.99
2017-08-19T01:59:35.942Z,79.75
2017-08-19T02:00:16.321Z,79.37
2017-08-19T02:00:56.829Z,80.14
2017-08-19T02:01:37.144Z,78.99
2017-08-19T02:02:17.542Z,79.66
2017-08-19T02:02:58.107Z,79.57
2017-08-19T02:03:38.529Z,79.37
2017-08-19T02:04:18.869Z,79.66
2017-08-19T02:04:59.365Z,79.47
2017-08-19T02:05:39.764Z,79.66
2017-08-19T02:06:20.217Z,79.95
2017-08-19T02:07:00.663Z,79.66
2017-08-19T02:07:41.074Z,79.18
2017-08-19T02:08:21.468Z,80.24
2017-08-19T02:09:01.910Z,80.81
2017-08-19T02:09:42.387Z,80.62
2017-08-19T02:10:22.784Z,79.85
2017-08-19T02:11:03.150Z,79.85
2017-08-19T02:11:43.534Z,79.47
2017-08-19T02:13:31.065Z,80.62
2017-08-19T02:14:11.634Z,79.95
2017-08-19T02:14:52.027Z,79.66
2017-08-19T02:15:32.518Z,79.47
2017-08-19T02:16:12.923Z,80.52
2017-08-19T02:16:53.312Z,79.85
2017-08-19T02:17:33.949Z,80.04
2017-08-19T02:18:14.371Z,79.37
2017-08-19T02:20:01.718Z,79.95
2017-08-19T02:20:42.358Z,79.57
2017-08-19T02:21:25.491Z,79.66
2017-08-19T02:22:05.911Z,79.66
2017-08-19T02:22:46.377Z,79.95
2017-08-19T02:23:26.778Z,79.95
2017-08-19T02:24:07.296Z,79.95
2017-08-19T02:24:47.684Z,79.95
2017-08-19T02:25:28.235Z,80.04
2017-08-19T02:26:08.639Z,80.04
2017-08-19T02:26:49.038Z,79.85
2017-08-19T02:27:29.425Z,80.14
2017-08-19T02:28:09.851Z,79.66
2017-08-19T02:28:50.297Z,79.57
2017-08-19T02:29:30.717Z,78.99
2017-08-19T02:30:11.168Z,79.57
2017-08-19T02:30:51.548Z,80.04
2017-08-19T02:31:32.075Z,79.57
2017-08-19T02:32:12.485Z,79.47
2017-08-19T02:32:52.880Z,79.37
2017-08-19T02:33:33.253Z,79.22
2017-08-19T02:34:13.658Z,79.03
2017-08-19T02:34:54.084Z,78.84
2017-08-19T02:35:34.605Z,79.03
2017-08-19T02:36:15.058Z,79.47
2017-08-19T02:36:55.434Z,79.57
2017-08-19T02:37:35.836Z,78.84
2017-08-19T02:38:16.610Z,78.89
2017-08-19T02:38:57.056Z,79.18
2017-08-19T02:39:37.477Z,79.18
2017-08-19T02:40:18.410Z,78.8
2017-08-19T02:40:58.448Z,78.89
2017-08-19T02:41:38.890Z,79.37
2017-08-19T02:42:19.263Z,79.7
2017-08-19T02:42:59.725Z,78.84
2017-08-19T02:43:40.466Z,79.03
2017-08-19T02:44:20.806Z,79.03
2017-08-19T02:45:01.212Z,78.99
2017-08-19T02:45:41.649Z,79.18
2017-08-19T02:46:22.087Z,79.03
2017-08-19T02:47:02.494Z,79.03
2017-08-19T02:47:42.889Z,78.93
2017-08-19T02:48:23.317Z,78.84
2017-08-19T02:49:03.741Z,78.99
2017-08-19T02:49:44.294Z,78.64
2017-08-19T02:50:24.958Z,78.45
2017-08-19T02:51:05.210Z,78.99
2017-08-19T02:51:45.777Z,79.03
2017-08-19T02:52:26.097Z,78.74
2017-08-19T02:53:06.963Z,79.32
2017-08-19T02:53:47.406Z,79.51
2017-08-19T02:56:05.048Z,78.45
2017-08-19T02:56:45.737Z,78.32
2017-08-19T02:57:26.390Z,78.7
2017-08-19T02:58:06.605Z,78.99
2017-08-19T02:58:47.009Z,78.99
2017-08-19T02:59:27.407Z,79.57
2017-08-19T03:00:07.943Z,78.7
2017-08-19T03:00:48.479Z,79.18
2017-08-19T03:01:28.898Z,78.8
2017-08-19T03:02:09.359Z,78.7
2017-08-19T03:02:49.800Z,78.42
2017-08-19T03:03:30.173Z,78.99
2017-08-19T03:04:10.617Z,78.99
2017-08-19T03:04:50.969Z,79.47
2017-08-19T03:06:48.578Z,78.8
2017-08-19T03:07:30.093Z,79.57
2017-08-19T03:08:10.529Z,79.08
2017-08-19T03:08:50.961Z,79.66
2017-08-19T03:09:31.358Z,79.37
2017-08-19T03:11:28.864Z,79.37
2017-08-19T03:12:10.371Z,79.47
2017-08-19T03:12:50.670Z,79.57
2017-08-19T03:13:31.132Z,79.08
2017-08-19T03:14:11.732Z,78.99
2017-08-19T03:14:52.151Z,79.75
2017-08-19T03:15:32.621Z,79.66
2017-08-19T03:16:13.029Z,78.89
2017-08-19T03:16:53.444Z,79.28
2017-08-19T03:17:33.860Z,78.99
2017-08-19T03:18:14.250Z,79.47
2017-08-19T03:18:54.725Z,79.57
2017-08-19T03:19:35.186Z,79.66
2017-08-19T03:21:22.489Z,79.37
2017-08-19T03:22:03.040Z,79.57
2017-08-19T03:22:43.425Z,79.47
2017-08-19T03:23:23.842Z,79.28
2017-08-19T03:25:32.726Z,79.57
2017-08-19T03:26:31.912Z,79.47
2017-08-19T03:27:33.537Z,79.47
2017-08-19T03:28:35.103Z,79.08
2017-08-19T03:29:37.660Z,78.61
2017-08-19T03:36:34.849Z,78.89
2017-08-19T03:37:32.909Z,78.13
2017-08-19T03:38:30.270Z,78.8
2017-08-19T03:39:35.288Z,78.7
2017-08-19T03:40:31.499Z,78.51
2017-08-19T03:41:29.879Z,77.94
2017-08-19T03:42:29.951Z,78.51
2017-08-19T03:43:29.111Z,78.8
2017-08-19T03:44:26.208Z,78.89
2017-08-19T03:45:33.189Z,78.95
2017-08-19T03:46:32.811Z,79.05
2017-08-19T03:47:36.252Z,78.89
2017-08-19T03:48:39.931Z,79.24
2017-08-19T03:49:41.942Z,79.14
2017-08-19T03:50:47.334Z,79.14
2017-08-19T03:53:23.180Z,79.81
2017-08-19T03:54:03.634Z,80.1
2017-08-19T03:54:43.997Z,79.62
2017-08-19T03:55:24.437Z,79.05
2017-08-19T03:56:04.775Z,80.1
2017-08-19T03:56:45.228Z,80.48
2017-08-19T03:57:25.574Z,79.49
2017-08-19T03:58:05.969Z,80.54
2017-08-19T03:58:46.375Z,80.82
2017-08-19T03:59:27.850Z,80.35
2017-08-19T04:00:07.986Z,81.02
2017-08-19T04:00:48.387Z,81.4
2017-08-19T04:01:28.781Z,81.97
2017-08-19T04:02:09.253Z,81.59
2017-08-19T04:02:49.675Z,81.49
2017-08-19T04:03:30.056Z,80.54
2017-08-19T04:04:10.459Z,81.97
2017-08-19T04:04:50.814Z,81.88
2017-08-19T04:05:31.200Z,80.92
2017-08-19T04:07:45.744Z,81.11
2017-08-19T04:08:26.077Z,81.02
2017-08-19T04:09:06.481Z,81.21
2017-08-19T04:09:46.890Z,81.21
2017-08-19T04:10:27.318Z,80.54
2017-08-19T04:11:07.732Z,81.36
2017-08-19T04:13:25.443Z,83.17
2017-08-19T04:14:05.763Z,82.98
2017-08-19T04:14:46.167Z,82.6
2017-08-19T04:15:26.620Z,82.89
2017-08-19T04:16:07.016Z,83.37
2017-08-19T04:16:47.583Z,83.46
2017-08-19T04:17:27.971Z,83.17
2017-08-19T04:18:08.318Z,83.27
2017-08-19T04:18:48.749Z,83.42
2017-08-19T04:19:29.154Z,83.42
2017-08-19T04:21:22.750Z,84.28
2017-08-19T04:22:03.104Z,84.09
2017-08-19T04:22:43.485Z,84.76
2017-08-19T04:23:24.266Z,85.14
2017-08-19T04:24:04.796Z,85.14
2017-08-19T04:24:45.181Z,85.96
2017-08-19T04:25:25.553Z,87.48
2017-08-19T04:26:05.953Z,86.53
2017-08-19T04:26:46.365Z,85.9
2017-08-19T04:27:26.793Z,85.38
2017-08-19T04:28:07.226Z,85.86
2017-08-19T04:28:47.615Z,85.86
2017-08-19T04:29:28.236Z,86.05
2017-08-19T04:30:08.668Z,86.34
2017-08-19T04:30:49.080Z,86.63
2017-08-19T04:31:29.434Z,87.48
2017-08-19T04:32:09.905Z,87.29
2017-08-19T04:34:07.600Z,87.39
2017-08-19T04:34:47.993Z,87.58
2017-08-19T04:35:28.416Z,87.87
2017-08-19T04:37:46.286Z,87.54
2017-08-19T04:38:26.536Z,87.35
2017-08-19T04:39:06.926Z,88.01
2017-08-19T04:39:47.361Z,87.63
2017-08-19T04:40:27.803Z,87.54
2017-08-19T04:41:08.174Z,87.35
2017-08-19T04:41:48.572Z,87.54
2017-08-19T04:42:29.243Z,88.06
2017-08-19T04:43:09.523Z,87.96
2017-08-19T04:43:49.850Z,87.77
2017-08-19T04:44:30.259Z,88.06
2017-08-19T04:45:10.648Z,87.87
2017-08-19T04:45:51.027Z,87.29
2017-08-19T04:46:31.455Z,87.29
2017-08-19T04:47:11.821Z,87.2
2017-08-19T04:47:52.198Z,86.82
2017-08-19T04:50:05.611Z,85.38
2017-08-19T04:50:47.056Z,85.33
2017-08-19T04:51:27.477Z,85.1
2017-08-19T04:52:07.851Z,85.77
2017-08-19T04:52:48.317Z,86
2017-08-19T04:53:28.729Z,84.47
2017-08-19T04:54:09.280Z,84.38
2017-08-19T04:54:49.689Z,84.28
2017-08-19T04:55:30.219Z,83.99
2017-08-19T04:56:10.501Z,84.28
2017-08-19T04:56:50.965Z,83.99
2017-08-19T04:57:31.338Z,84.85
2017-08-19T04:58:11.761Z,83.9
2017-08-19T04:58:52.136Z,84.09
2017-08-19T04:59:32.580Z,83.61
2017-08-19T05:00:13.001Z,83.37
2017-08-19T05:00:53.379Z,83.27
2017-08-19T05:01:33.829Z,82.31
2017-08-19T05:02:14.375Z,81.65
2017-08-19T05:02:54.802Z,81.74
2017-08-19T05:03:35.226Z,81.84
2017-08-19T05:04:15.621Z,80.3
2017-08-19T05:04:56.002Z,81.3
2017-08-19T05:05:36.410Z,80.54
2017-08-19T05:06:16.829Z,80.44
2017-08-19T05:06:57.218Z,79.49
2017-08-19T05:07:37.633Z,78.72
2017-08-19T05:08:18.030Z,78.72
2017-08-19T05:08:58.480Z,78.66
2017-08-19T05:09:38.857Z,78.95
2017-08-19T05:10:19.368Z,79.05
2017-08-19T05:10:59.681Z,77.46
2017-08-19T05:12:52.474Z,75.29
2017-08-19T05:13:32.806Z,74.62
2017-08-19T05:14:13.487Z,74.24
2017-08-19T05:14:53.713Z,72.94
2017-08-19T05:15:34.379Z,72.84
2017-08-19T05:16:14.721Z,72.55
2017-08-19T05:16:55.034Z,71.98
2017-08-19T05:17:35.508Z,72.01
2017-08-19T05:18:15.860Z,70.86
2017-08-19T05:18:56.282Z,70.19
2017-08-19T05:19:36.747Z,70.09
2017-08-19T05:21:49.688Z,68.59
2017-08-19T05:22:29.972Z,68.59
2017-08-19T05:23:10.381Z,67.83
2017-08-19T05:23:50.980Z,67.96
2017-08-19T05:24:31.377Z,67
2017-08-19T05:25:11.711Z,66.33
2017-08-19T05:25:52.964Z,66.16
2017-08-19T05:26:33.385Z,65.4
2017-08-19T05:27:14.027Z,65.88
2017-08-19T05:27:54.414Z,65.3
2017-08-19T05:28:34.823Z,65.69
2017-08-19T05:29:15.218Z,66.36
2017-08-19T05:29:55.667Z,64.09
2017-08-19T05:30:36.064Z,63.79
2017-08-19T05:31:16.470Z,63.99
2017-08-19T05:31:56.834Z,64.18
2017-08-19T05:32:37.214Z,63.12
2017-08-19T05:33:17.655Z,63.02
2017-08-19T05:33:58.068Z,62.77
2017-08-19T05:34:38.532Z,62.19
2017-08-19T05:35:18.882Z,61.81
2017-08-19T05:35:59.349Z,60.49
2017-08-19T05:36:39.804Z,59.72
2017-08-19T05:37:20.138Z,59.72
2017-08-19T05:38:00.526Z,60.21
2017-08-19T05:38:41.121Z,59.37
2017-08-19T05:39:21.511Z,58.7
2017-08-19T05:40:02.062Z,58.7
2017-08-19T05:40:42.507Z,58.12
2017-08-19T05:41:22.891Z,57.47
2017-08-19T05:42:03.297Z,57.37
2017-08-19T05:42:43.737Z,57.12
2017-08-19T05:43:24.152Z,55.96
2017-08-19T05:44:04.587Z,55.22
2017-08-19T05:44:45.181Z,55.31
2017-08-19T05:45:25.525Z,56.27
2017-08-19T05:46:05.983Z,54.64
2017-08-19T05:47:58.552Z,53.8
2017-08-19T05:48:41.003Z,53.44
2017-08-19T05:49:21.471Z,52.86
2017-08-19T05:50:01.801Z,52.5
2017-08-19T05:50:42.183Z,52.4
2017-08-19T05:51:22.615Z,51.92
2017-08-19T05:52:03.042Z,50.89
2017-08-19T05:52:43.457Z,50.79
2017-08-19T05:53:23.899Z,49.82
2017-08-19T05:54:04.471Z,49.95
2017-08-19T05:54:44.815Z,49.07
2017-08-19T05:55:25.213Z,48.49
2017-08-19T05:56:05.572Z,47.94
2017-08-19T05:56:45.978Z,47.16
2017-08-19T05:57:26.388Z,47.16
2017-08-19T05:58:07.257Z,47.36
2017-08-19T05:58:48.064Z,46.8
2017-08-19T05:59:28.302Z,46.9
2017-08-19T06:00:08.568Z,45.64
2017-08-19T06:00:49.471Z,45.93
2017-08-19T06:01:29.464Z,45.83
2017-08-19T06:02:09.866Z,45.47
2017-08-19T06:02:50.238Z,45.37
2017-08-19T06:03:30.678Z,45.28
2017-08-19T06:04:11.115Z,45.47
2017-08-19T06:04:51.580Z,44.02
2017-08-19T06:05:31.995Z,44.4
2017-08-19T06:06:12.407Z,43.92
2017-08-19T06:06:52.839Z,44.31
2017-08-19T06:07:33.361Z,45.95
2017-08-19T06:08:13.784Z,45.37
2017-08-19T06:08:54.202Z,44.6
2017-08-19T06:09:34.720Z,44.89
2017-08-19T06:10:15.046Z,44.62
2017-08-19T06:10:55.482Z,44.31
2017-08-19T06:11:35.876Z,43.63
2017-08-19T06:12:16.320Z,44.79
2017-08-19T06:12:56.706Z,45.37
2017-08-19T06:13:37.094Z,45.18
2017-08-19T06:14:17.529Z,45.08
2017-08-19T06:14:57.957Z,45.25
2017-08-19T06:15:38.343Z,45.93
2017-08-19T06:16:18.711Z,45.83
2017-08-19T06:16:59.113Z,45.35
2017-08-19T06:17:39.535Z,44.5
2017-08-19T06:18:19.951Z,44.12
2017-08-19T06:20:38.898Z,44.04
2017-08-19T06:21:19.190Z,43.85
2017-08-19T06:21:59.547Z,43.82
2017-08-19T06:22:39.955Z,44.77
2017-08-19T06:23:20.344Z,46.12
2017-08-19T06:24:00.744Z,46
2017-08-19T06:24:41.180Z,45.89
2017-08-19T06:25:21.654Z,47.05
2017-08-19T06:26:01.981Z,48.47
2017-08-19T06:26:42.422Z,48.39
2017-08-19T06:27:22.814Z,48.49
2017-08-19T06:28:03.233Z,47.55
2017-08-19T06:28:43.623Z,46.88
2017-08-19T06:29:24.073Z,46.61
2017-08-19T06:30:04.447Z,45.93
2017-08-19T06:30:44.865Z,45.47
2017-08-19T06:31:25.280Z,45.2
2017-08-19T06:32:05.767Z,45.2
2017-08-19T06:34:23.569Z,46.9
2017-08-19T06:35:08.904Z,46.12
2017-08-19T06:35:49.335Z,46.97
2017-08-19T06:36:29.766Z,48.21
2017-08-19T06:37:10.225Z,48.08
2017-08-19T06:37:50.594Z,48.57
2017-08-19T06:38:31.012Z,49.12
2017-08-19T06:40:43.701Z,50.96
2017-08-19T06:41:24.758Z,51.7
2017-08-19T06:42:05.077Z,52.25
2017-08-19T06:42:45.652Z,52.83
2017-08-19T06:45:57.066Z,54.9
2017-08-19T06:46:50.995Z,54.8
2017-08-19T06:47:49.088Z,56.03
2017-08-19T06:48:52.543Z,57.28
2017-08-19T06:49:46.241Z,57.35
2017-08-19T06:50:29.894Z,57.45
2017-08-19T06:51:17.067Z,58.7
2017-08-19T06:51:57.862Z,58.22
2017-08-19T06:52:39.597Z,58.12
2017-08-19T06:53:21.373Z,58.12
2017-08-19T06:54:03.544Z,59.15
2017-08-19T06:54:44.224Z,59.15
2017-08-19T06:58:11.443Z,60.21
2017-08-19T06:58:52.650Z,60.3
2017-08-19T06:59:33.071Z,60.3
2017-08-19T07:00:13.453Z,60.49
2017-08-19T07:00:53.900Z,59.63
2017-08-19T07:01:34.637Z,60.3
2017-08-19T07:02:14.708Z,61.26
2017-08-19T07:02:55.294Z,60.78
2017-08-19T07:03:35.593Z,60.69
2017-08-19T07:04:16.059Z,60.78
2017-08-19T07:04:56.642Z,59.82
2017-08-19T07:05:37.012Z,60.01
2017-08-19T07:07:29.646Z,59.63
2017-08-19T07:08:10.615Z,60.49
2017-08-19T07:08:51.070Z,59.72
2017-08-19T07:09:31.682Z,60.3
2017-08-19T07:10:12.568Z,60.49
2017-08-19T07:10:53.066Z,60.78
2017-08-19T07:11:33.299Z,60.78
2017-08-19T07:12:13.881Z,60.72
2017-08-19T07:12:54.277Z,60.04
2017-08-19T07:13:35.047Z,60.24
2017-08-19T07:14:15.746Z,60.81
2017-08-19T07:14:56.138Z,59.94
2017-08-19T07:15:36.727Z,60.52
2017-08-19T07:16:17.131Z,59.56
2017-08-19T07:16:57.683Z,59.85
2017-08-19T07:17:38.068Z,60.14
2017-08-19T07:18:18.537Z,59.17
2017-08-19T07:18:58.970Z,58.98
2017-08-19T07:19:39.346Z,60.14
2017-08-19T07:20:19.796Z,59.37
2017-08-19T07:21:00.228Z,58.98
2017-08-19T07:21:40.704Z,59.47
2017-08-19T07:22:21.109Z,60.91
2017-08-19T07:23:01.513Z,60.14
2017-08-19T07:23:41.930Z,59.66
2017-08-19T07:24:22.391Z,58.98
2017-08-19T07:25:02.680Z,58.4
2017-08-19T07:25:43.184Z,59.17
2017-08-19T07:26:23.589Z,58.98
2017-08-19T07:27:04.105Z,59.17
2017-08-19T07:27:44.539Z,59.92
2017-08-19T07:28:24.958Z,61.07
2017-08-19T07:29:05.381Z,60.52
2017-08-19T07:29:46.227Z,61
2017-08-19T07:30:26.589Z,60.81
2017-08-19T07:31:06.977Z,60.42
2017-08-19T07:31:47.432Z,61
2017-08-19T07:32:27.904Z,59.85
2017-08-19T07:33:08.345Z,60.33
2017-08-19T07:33:48.843Z,60.52
2017-08-19T07:34:29.309Z,59.94
2017-08-19T07:35:09.695Z,59.94
2017-08-19T07:35:50.069Z,59.85
2017-08-19T07:36:30.542Z,59.85
2017-08-19T07:37:11.028Z,61.07
2017-08-19T07:37:51.480Z,60.97
2017-08-19T07:39:49.891Z,61.71
2017-08-19T07:40:30.424Z,62.1
2017-08-19T07:41:10.892Z,62.38
2017-08-19T07:41:51.286Z,62.68
2017-08-19T07:42:31.682Z,62.48
2017-08-19T07:43:12.553Z,62.19
2017-08-19T07:43:52.958Z,62.71
2017-08-19T07:44:33.428Z,62.8
2017-08-19T07:45:13.798Z,62.32
2017-08-19T07:45:54.230Z,61.74
2017-08-19T07:46:34.674Z,61.07
2017-08-19T07:47:15.130Z,61.74
2017-08-19T07:47:55.651Z,61.16
2017-08-19T07:48:36.099Z,60.39
2017-08-19T07:49:16.465Z,61.07
2017-08-19T07:49:56.923Z,61.74
2017-08-19T07:50:37.346Z,61.36
2017-08-19T07:51:17.992Z,61.49
2017-08-19T07:51:58.870Z,61.19
2017-08-19T07:52:39.022Z,61
2017-08-19T07:53:19.422Z,59.97
2017-08-19T07:53:59.841Z,59.4
2017-08-19T07:54:40.282Z,60
2017-08-19T07:55:20.671Z,57.98
2017-08-19T07:56:01.149Z,57.89
2017-08-19T07:56:41.591Z,56.85
2017-08-19T07:57:22.097Z,56.57
2017-08-19T07:58:02.603Z,56.47
2017-08-19T07:58:43.024Z,55.31
2017-08-19T08:00:32.031Z,55.15
2017-08-19T08:01:13.708Z,55.18
2017-08-19T08:01:54.427Z,53.83
2017-08-19T08:02:35.030Z,53.92
2017-08-19T08:03:15.479Z,53.85
2017-08-19T08:03:55.851Z,52.67
2017-08-19T08:04:36.647Z,52.5
2017-08-19T08:05:16.996Z,52.31
2017-08-19T08:05:57.381Z,52.4
2017-08-19T08:06:40.734Z,52.69
2017-08-19T08:07:21.466Z,51.63
2017-08-19T08:08:01.788Z,51.63
2017-08-19T08:08:42.334Z,52.11
2017-08-19T08:09:22.721Z,52.23
2017-08-19T08:10:03.149Z,51.75
2017-08-19T08:10:45.565Z,51.07
2017-08-19T08:11:25.997Z,50.01
2017-08-19T08:12:06.423Z,50.59
2017-08-19T08:12:46.881Z,50.21
2017-08-19T08:13:27.309Z,50.13
2017-08-19T08:14:07.662Z,50.04
2017-08-19T08:14:48.220Z,49.17
2017-08-19T08:15:28.599Z,50.21
2017-08-19T08:16:09.107Z,50.59
2017-08-19T08:16:49.742Z,50.96
2017-08-19T08:17:30.165Z,50.96
2017-08-19T08:18:10.608Z,51.63
2017-08-19T08:18:51.013Z,52.4
2017-08-19T08:19:31.513Z,52.47
2017-08-19T08:20:11.965Z,52.95
2017-08-19T08:20:52.458Z,52.86
2017-08-19T08:21:34.634Z,53.37
2017-08-19T08:22:15.054Z,52.98
2017-08-19T08:22:55.461Z,52.33
2017-08-19T08:24:48.557Z,49.92
2017-08-19T08:25:34.021Z,50.79
2017-08-19T08:26:14.307Z,50.96
2017-08-19T08:26:54.782Z,51.73
2017-08-19T08:27:35.115Z,51.63
2017-08-19T08:28:15.557Z,51.82
2017-08-19T08:28:55.956Z,51.63
2017-08-19T08:29:36.325Z,51.7
2017-08-19T08:30:16.740Z,51.7
2017-08-19T08:30:57.167Z,52.37
2017-08-19T08:33:20.702Z,53.99
2017-08-19T08:34:16.675Z,54.38
2017-08-19T08:35:15.880Z,54.66
2017-08-19T08:36:15.316Z,54.86
2017-08-19T08:37:13.978Z,54.38
2017-08-19T08:38:14.445Z,54.86
2017-08-19T08:39:11.299Z,55.89
2017-08-19T08:40:07.284Z,55.79
2017-08-19T08:41:07.931Z,55.7
2017-08-19T08:42:05.842Z,55.51
2017-08-19T08:43:01.600Z,55.99
2017-08-19T08:44:00.574Z,56.66
2017-08-19T08:44:57.185Z,56.85
2017-08-19T08:45:55.113Z,55.7
2017-08-19T08:46:55.173Z,56.35
2017-08-19T08:47:51.799Z,57.6
2017-08-19T08:48:47.582Z,57.4
2017-08-19T08:49:44.821Z,58.08
2017-08-19T08:50:51.917Z,58.95
2017-08-19T08:51:56.736Z,59.88
2017-08-19T08:52:59.377Z,60.55
2017-08-19T08:54:05.769Z,61.13
2017-08-19T08:55:07.882Z,61.68
2017-08-19T08:57:12.944Z,62.16
2017-08-19T08:58:19.983Z,61.58
2017-08-19T08:59:16.566Z,62.16
2017-08-19T09:00:16.346Z,61.77
2017-08-19T09:01:11.529Z,62.03
2017-08-19T09:02:10.646Z,62.03
2017-08-19T09:03:09.112Z,62.51
2017-08-19T09:04:09.867Z,63.09
2017-08-19T09:05:06.749Z,61.55
2017-08-19T09:06:05.121Z,61.68
2017-08-19T09:07:03.088Z,61.29
2017-08-19T09:09:39.438Z,60.36
2017-08-19T09:10:19.661Z,59.43
2017-08-19T09:11:00.168Z,58.17
2017-08-19T09:11:40.460Z,57.4
2017-08-19T09:12:20.857Z,57.89
2017-08-19T09:13:01.313Z,57.6
2017-08-19T09:13:42.634Z,57.79
2017-08-19T09:14:23.006Z,57.72
2017-08-19T09:15:03.490Z,56.85
2017-08-19T09:15:44.148Z,56.76
2017-08-19T09:16:24.544Z,55.7
2017-08-19T09:17:04.964Z,56.18
2017-08-19T09:17:45.455Z,56.85
2017-08-19T09:18:25.775Z,56.76
2017-08-19T09:19:07.029Z,56.54
2017-08-19T09:19:47.393Z,55.99
2017-08-19T09:20:28.169Z,56.95
2017-08-19T09:21:08.365Z,55.99
2017-08-19T09:21:48.914Z,56.85
2017-08-19T09:25:06.876Z,58.11
2017-08-19T09:27:09.803Z,56.47
2017-08-19T09:28:09.606Z,56.57
2017-08-19T09:29:10.721Z,56.79
2017-08-19T09:30:08.913Z,56.01
2017-08-19T09:31:13.060Z,55.82
2017-08-19T09:32:10.989Z,54.86
2017-08-19T09:33:06.582Z,54.5
2017-08-19T09:34:04.766Z,52.86
2017-08-19T09:35:02.606Z,53.25
2017-08-19T09:35:57.377Z,53.44
2017-08-19T09:36:53.677Z,53.34
2017-08-19T09:37:49.313Z,54.11
2017-08-19T09:38:44.663Z,54.4
2017-08-19T09:39:45.998Z,53.47
2017-08-19T09:40:48.395Z,52.86
2017-08-19T09:41:47.568Z,52.67
2017-08-19T09:42:56.043Z,52.67
2017-08-19T09:44:01.523Z,52.76
2017-08-19T09:46:00.958Z,52.33
2017-08-19T09:46:41.442Z,51.65
2017-08-19T09:47:21.870Z,51.56
2017-08-19T09:48:02.227Z,51.59
2017-08-19T09:48:43.534Z,50.91
2017-08-19T09:49:23.836Z,49.68
2017-08-19T09:50:04.275Z,50.07
2017-08-19T09:50:45.430Z,48.93
2017-08-19T09:51:25.986Z,48.42
2017-08-19T09:52:06.522Z,48.32
2017-08-19T09:52:47.058Z,48.42
2017-08-19T09:53:27.574Z,48.52
2017-08-19T09:54:07.887Z,48.42
2017-08-19T09:54:48.419Z,48.81
2017-08-19T09:55:28.845Z,47.74
2017-08-19T09:56:09.937Z,48.13
2017-08-19T09:56:50.578Z,48.9
2017-08-19T09:57:31.742Z,48.52
2017-08-19T09:58:12.189Z,48.81
2017-08-19T09:58:53.365Z,46.88
2017-08-19T09:59:33.815Z,47.26
2017-08-19T10:00:14.221Z,47.55
2017-08-19T10:00:55.395Z,47.55
2017-08-19T10:01:35.746Z,47.43
2017-08-19T10:02:16.197Z,47.81
2017-08-19T10:02:56.726Z,48.49
2017-08-19T10:03:37.233Z,47.72
2017-08-19T10:04:17.823Z,48.21
2017-08-19T10:04:58.091Z,49.07
2017-08-19T10:05:38.508Z,48.88
2017-08-19T10:06:20.802Z,49.07
2017-08-19T10:07:01.307Z,49.1
2017-08-19T10:07:41.653Z,49.19
2017-08-19T10:08:22.098Z,47.28
2017-08-19T10:09:02.492Z,47.02
2017-08-19T10:09:42.972Z,47.21
2017-08-19T10:10:23.449Z,46.36
2017-08-19T10:11:03.883Z,46.39
2017-08-19T10:11:44.221Z,45.51
2017-08-19T10:12:24.720Z,43.87
2017-08-19T10:13:05.869Z,43.02
2017-08-19T10:13:46.246Z,43.02
2017-08-19T10:14:26.774Z,43.09
2017-08-19T10:15:07.100Z,43.46
2017-08-19T10:15:47.548Z,43.95
2017-08-19T10:16:28.139Z,44.72